Auburn Hills, Michigan
Current Conditions -  °F | °C
As of 6:15 AM on Wednesday 26 Nov 2014 (Local Time) from KVLL Reporting Station
Overcast Overcast  
Wind Chill: 27°   Ceiling: 2500
Heat Index: 32°   Visibility: 10mi
Dew Point: 22°   Wind: 5mph
Humidity: 66%   Direction: 10°N
Pressure: 30.18"   Gusts: NA
Location:  42.67°N, 83.22°W
Report Text: KVLL 261115Z AUTO 01004KT 10SM OVC025 00/M06 A3018 RMK AO2 T00001057
Loading
Personal Weather Stations






























Interactive Weather Map New forecast layout! Learn more

10-Day Weather Forecast

Advertisements
Track Severe Weather on mobile